sensor_id;sensor_type;location;lat;lon;timestamp;P1;durP1;ratioP1;P2;durP2;ratioP2
46755;SDS011;32506;52.826;-1.192;2023-05-07T05:23:50;2.58;;;1.98;;
46755;SDS011;32506;52.826;-1.192;2023-05-07T05:26:15;2.60;;;1.98;;
46755;SDS011;32506;52.826;-1.192;2023-05-07T05:28:41;3.88;;;2.25;;
46755;SDS011;32506;52.826;-1.192;2023-05-07T05:31:06;3.10;;;2.35;;
46755;SDS011;32506;52.826;-1.192;2023-05-07T05:33:32;3.70;;;2.10;;
46755;SDS011;32506;52.826;-1.192;2023-05-07T05:35:57;2.70;;;2.08;;
46755;SDS011;32506;52.826;-1.192;2023-05-07T05:38:23;3.38;;;2.17;;
46755;SDS011;32506;52.826;-1.192;2023-05-07T05:40:48;3.20;;;2.05;;
46755;SDS011;32506;52.826;-1.192;2023-05-07T05:43:14;3.40;;;2.30;;
46755;SDS011;32506;52.826;-1.192;2023-05-07T05:45:39;3.47;;;2.13;;
46755;SDS011;32506;52.826;-1.192;2023-05-07T05:48:05;3.05;;;2.42;;
46755;SDS011;32506;52.826;-1.192;2023-05-07T05:50:31;4.57;;;2.85;;
46755;SDS011;32506;52.826;-1.192;2023-05-07T05:52:56;3.53;;;2.40;;
46755;SDS011;32506;52.826;-1.192;2023-05-07T05:55:22;2.70;;;2.15;;
46755;SDS011;32506;52.826;-1.192;2023-05-07T05:57:49;3.28;;;2.22;;
46755;SDS011;32506;52.826;-1.192;2023-05-07T06:00:15;3.33;;;2.10;;
46755;SDS011;32506;52.826;-1.192;2023-05-07T06:02:41;3.28;;;2.38;;
46755;SDS011;32506;52.826;-1.192;2023-05-07T06:05:07;3.83;;;2.10;;
46755;SDS011;32506;52.826;-1.192;2023-05-07T06:07:33;2.85;;;2.03;;
46755;SDS011;32506;52.826;-1.192;2023-05-07T06:09:59;2.85;;;2.10;;
46755;SDS011;32506;52.826;-1.192;2023-05-07T06:12:25;4.15;;;2.65;;
46755;SDS011;32506;52.826;-1.192;2023-05-07T06:14:51;3.45;;;2.47;;
46755;SDS011;32506;52.826;-1.192;2023-05-07T06:17:17;3.08;;;2.22;;
46755;SDS011;32506;52.826;-1.192;2023-05-07T06:19:42;4.68;;;2.90;;
46755;SDS011;32506;52.826;-1.192;2023-05-07T06:22:08;3.95;;;3.15;;
46755;SDS011;32506;52.826;-1.192;2023-05-07T06:24:33;4.05;;;2.78;;
46755;SDS011;32506;52.826;-1.192;2023-05-07T06:26:58;4.57;;;3.50;;
46755;SDS011;32506;52.826;-1.192;2023-05-07T06:29:24;4.93;;;3.58;;
46755;SDS011;32506;52.826;-1.192;2023-05-07T06:31:55;4.22;;;2.63;;
46755;SDS011;32506;52.826;-1.192;2023-05-07T06:34:20;4.28;;;2.95;;
46755;SDS011;32506;52.826;-1.192;2023-05-07T06:36:46;3.60;;;2.80;;
46755;SDS011;32506;52.826;-1.192;2023-05-07T06:39:11;4.53;;;3.05;;
46755;SDS011;32506;52.826;-1.192;2023-05-07T06:41:37;3.65;;;2.65;;
46755;SDS011;32506;52.826;-1.192;2023-05-07T06:44:02;3.97;;;3.13;;
46755;SDS011;32506;52.826;-1.192;2023-05-07T06:46:28;3.95;;;2.75;;
46755;SDS011;32506;52.826;-1.192;2023-05-07T06:48:54;3.60;;;2.83;;
46755;SDS011;32506;52.826;-1.192;2023-05-07T06:51:20;4.30;;;3.08;;
46755;SDS011;32506;52.826;-1.192;2023-05-07T06:53:45;3.25;;;2.38;;
46755;SDS011;32506;52.826;-1.192;2023-05-07T06:56:10;4.50;;;2.83;;
46755;SDS011;32506;52.826;-1.192;2023-05-07T06:58:36;3.42;;;2.97;;
46755;SDS011;32506;52.826;-1.192;2023-05-07T07:01:02;4.15;;;3.70;;
46755;SDS011;32506;52.826;-1.192;2023-05-07T07:03:27;5.10;;;3.00;;
46755;SDS011;32506;52.826;-1.192;2023-05-07T07:05:53;3.80;;;2.90;;
46755;SDS011;32506;52.826;-1.192;2023-05-07T07:08:20;3.92;;;3.10;;
46755;SDS011;32506;52.826;-1.192;2023-05-07T07:10:47;4.13;;;3.17;;
46755;SDS011;32506;52.826;-1.192;2023-05-07T07:13:12;4.95;;;3.40;;
46755;SDS011;32506;52.826;-1.192;2023-05-07T07:15:38;3.65;;;2.75;;
46755;SDS011;32506;52.826;-1.192;2023-05-07T07:18:05;4.03;;;3.25;;
46755;SDS011;32506;52.826;-1.192;2023-05-07T07:20:31;3.63;;;3.03;;
46755;SDS011;32506;52.826;-1.192;2023-05-07T07:22:56;7.13;;;3.22;;
46755;SDS011;32506;52.826;-1.192;2023-05-07T07:25:22;3.70;;;3.30;;
46755;SDS011;32506;52.826;-1.192;2023-05-07T07:27:48;3.60;;;3.10;;
46755;SDS011;32506;52.826;-1.192;2023-05-07T07:30:14;4.47;;;3.90;;
46755;SDS011;32506;52.826;-1.192;2023-05-07T07:32:40;4.35;;;3.65;;
46755;SDS011;32506;52.826;-1.192;2023-05-07T07:35:05;4.70;;;3.90;;
46755;SDS011;32506;52.826;-1.192;2023-05-07T07:37:31;5.15;;;4.38;;
46755;SDS011;32506;52.826;-1.192;2023-05-07T07:39:56;6.38;;;4.68;;
46755;SDS011;32506;52.826;-1.192;2023-05-07T07:42:22;6.80;;;4.93;;
46755;SDS011;32506;52.826;-1.192;2023-05-07T07:44:47;5.20;;;4.00;;
46755;SDS011;32506;52.826;-1.192;2023-05-07T07:47:13;5.72;;;4.47;;
46755;SDS011;32506;52.826;-1.192;2023-05-07T07:49:39;5.43;;;4.63;;
46755;SDS011;32506;52.826;-1.192;2023-05-07T07:52:04;5.35;;;4.18;;
46755;SDS011;32506;52.826;-1.192;2023-05-07T07:54:30;6.50;;;5.05;;
46755;SDS011;32506;52.826;-1.192;2023-05-07T07:56:55;6.43;;;4.90;;
46755;SDS011;32506;52.826;-1.192;2023-05-07T07:59:21;7.07;;;4.70;;
46755;SDS011;32506;52.826;-1.192;2023-05-07T08:01:46;7.25;;;5.63;;
46755;SDS011;32506;52.826;-1.192;2023-05-07T08:04:14;5.65;;;4.22;;
46755;SDS011;32506;52.826;-1.192;2023-05-07T08:06:39;5.50;;;3.88;;
46755;SDS011;32506;52.826;-1.192;2023-05-07T08:09:05;6.85;;;4.75;;
46755;SDS011;32506;52.826;-1.192;2023-05-07T08:11:30;5.78;;;4.78;;
46755;SDS011;32506;52.826;-1.192;2023-05-07T08:13:56;5.75;;;4.88;;
46755;SDS011;32506;52.826;-1.192;2023-05-07T08:16:21;7.70;;;5.93;;
46755;SDS011;32506;52.826;-1.192;2023-05-07T08:18:47;6.40;;;4.85;;
46755;SDS011;32506;52.826;-1.192;2023-05-07T08:21:12;6.43;;;5.28;;
46755;SDS011;32506;52.826;-1.192;2023-05-07T08:23:38;6.43;;;5.43;;
46755;SDS011;32506;52.826;-1.192;2023-05-07T08:26:03;6.72;;;5.80;;
46755;SDS011;32506;52.826;-1.192;2023-05-07T08:28:29;7.15;;;6.07;;
46755;SDS011;32506;52.826;-1.192;2023-05-07T08:30:54;8.05;;;6.30;;
46755;SDS011;32506;52.826;-1.192;2023-05-07T08:33:21;7.10;;;5.53;;
46755;SDS011;32506;52.826;-1.192;2023-05-07T08:35:47;8.82;;;6.20;;
46755;SDS011;32506;52.826;-1.192;2023-05-07T08:38:12;6.18;;;5.47;;
46755;SDS011;32506;52.826;-1.192;2023-05-07T08:40:38;7.28;;;5.82;;
46755;SDS011;32506;52.826;-1.192;2023-05-07T08:43:06;7.95;;;5.47;;
46755;SDS011;32506;52.826;-1.192;2023-05-07T08:45:32;7.22;;;5.47;;
46755;SDS011;32506;52.826;-1.192;2023-05-07T08:47:58;7.95;;;6.07;;
46755;SDS011;32506;52.826;-1.192;2023-05-07T08:50:26;7.57;;;5.90;;
46755;SDS011;32506;52.826;-1.192;2023-05-07T08:52:52;8.10;;;5.57;;
46755;SDS011;32506;52.826;-1.192;2023-05-07T08:55:18;8.82;;;5.25;;
46755;SDS011;32506;52.826;-1.192;2023-05-07T08:57:43;6.05;;;4.55;;
46755;SDS011;32506;52.826;-1.192;2023-05-07T09:00:09;6.38;;;4.70;;
46755;SDS011;32506;52.826;-1.192;2023-05-07T09:02:36;7.55;;;5.57;;
46755;SDS011;32506;52.826;-1.192;2023-05-07T09:05:02;5.63;;;4.65;;
46755;SDS011;32506;52.826;-1.192;2023-05-07T09:07:28;7.15;;;5.18;;
46755;SDS011;32506;52.826;-1.192;2023-05-07T09:09:53;6.72;;;4.50;;
46755;SDS011;32506;52.826;-1.192;2023-05-07T09:12:23;7.57;;;4.53;;
46755;SDS011;32506;52.826;-1.192;2023-05-07T09:14:48;8.05;;;4.78;;
46755;SDS011;32506;52.826;-1.192;2023-05-07T09:17:17;5.40;;;3.80;;
46755;SDS011;32506;52.826;-1.192;2023-05-07T09:19:46;5.55;;;3.60;;
46755;SDS011;32506;52.826;-1.192;2023-05-07T09:22:12;5.30;;;3.42;;
46755;SDS011;32506;52.826;-1.192;2023-05-07T09:24:38;6.65;;;3.53;;
46755;SDS011;32506;52.826;-1.192;2023-05-07T09:27:04;6.70;;;3.83;;
46755;SDS011;32506;52.826;-1.192;2023-05-07T09:29:30;4.03;;;2.88;;
46755;SDS011;32506;52.826;-1.192;2023-05-07T09:32:03;4.22;;;2.83;;
46755;SDS011;32506;52.826;-1.192;2023-05-07T09:34:31;4.72;;;3.13;;
46755;SDS011;32506;52.826;-1.192;2023-05-07T09:37:01;6.78;;;3.35;;
46755;SDS011;32506;52.826;-1.192;2023-05-07T09:39:38;6.18;;;2.95;;
46755;SDS011;32506;52.826;-1.192;2023-05-07T09:42:10;3.55;;;2.80;;
46755;SDS011;32506;52.826;-1.192;2023-05-07T09:44:37;6.68;;;3.05;;
46755;SDS011;32506;52.826;-1.192;2023-05-07T09:47:04;8.30;;;4.90;;
46755;SDS011;32506;52.826;-1.192;2023-05-07T09:49:30;12.13;;;7.10;;
46755;SDS011;32506;52.826;-1.192;2023-05-07T09:52:02;13.02;;;6.82;;
46755;SDS011;32506;52.826;-1.192;2023-05-07T09:54:28;9.52;;;5.90;;
46755;SDS011;32506;52.826;-1.192;2023-05-07T09:56:55;6.57;;;4.82;;
46755;SDS011;32506;52.826;-1.192;2023-05-07T09:59:22;7.30;;;3.92;;
46755;SDS011;32506;52.826;-1.192;2023-05-07T10:01:47;8.07;;;4.57;;
46755;SDS011;32506;52.826;-1.192;2023-05-07T10:04:14;7.78;;;4.68;;
46755;SDS011;32506;52.826;-1.192;2023-05-07T10:06:40;6.07;;;3.92;;
46755;SDS011;32506;52.826;-1.192;2023-05-07T10:09:06;8.30;;;4.65;;
46755;SDS011;32506;52.826;-1.192;2023-05-07T10:11:35;8.90;;;4.68;;
46755;SDS011;32506;52.826;-1.192;2023-05-07T10:14:04;8.57;;;3.95;;
46755;SDS011;32506;52.826;-1.192;2023-05-07T10:16:33;5.50;;;3.20;;
46755;SDS011;32506;52.826;-1.192;2023-05-07T10:19:02;7.47;;;3.92;;
46755;SDS011;32506;52.826;-1.192;2023-05-07T10:21:29;7.80;;;3.78;;
46755;SDS011;32506;52.826;-1.192;2023-05-07T10:24:04;6.18;;;3.70;;
46755;SDS011;32506;52.826;-1.192;2023-05-07T10:26:33;5.78;;;2.78;;
46755;SDS011;32506;52.826;-1.192;2023-05-07T10:31:57;4.00;;;1.55;;
46755;SDS011;32506;52.826;-1.192;2023-05-07T10:34:40;2.83;;;1.30;;
46755;SDS011;32506;52.826;-1.192;2023-05-07T10:37:09;4.90;;;1.85;;
46755;SDS011;32506;52.826;-1.192;2023-05-07T10:39:35;3.38;;;1.15;;
46755;SDS011;32506;52.826;-1.192;2023-05-07T10:42:08;3.13;;;1.30;;
46755;SDS011;32506;52.826;-1.192;2023-05-07T10:44:34;2.53;;;1.35;;
46755;SDS011;32506;52.826;-1.192;2023-05-07T10:47:12;2.67;;;1.10;;
46755;SDS011;32506;52.826;-1.192;2023-05-07T10:52:10;2.45;;;1.10;;
46755;SDS011;32506;52.826;-1.192;2023-05-07T10:54:36;2.15;;;0.98;;
46755;SDS011;32506;52.826;-1.192;2023-05-07T10:57:32;3.63;;;1.20;;
46755;SDS011;32506;52.826;-1.192;2023-05-07T10:59:57;2.10;;;1.00;;
46755;SDS011;32506;52.826;-1.192;2023-05-07T11:02:23;2.90;;;1.20;;
46755;SDS011;32506;52.826;-1.192;2023-05-07T11:07:56;3.17;;;1.25;;
46755;SDS011;32506;52.826;-1.192;2023-05-07T11:10:22;3.60;;;0.95;;
46755;SDS011;32506;52.826;-1.192;2023-05-07T11:15:14;3.22;;;1.10;;
46755;SDS011;32506;52.826;-1.192;2023-05-07T11:17:59;3.83;;;1.00;;
46755;SDS011;32506;52.826;-1.192;2023-05-07T11:26:02;3.78;;;1.10;;
46755;SDS011;32506;52.826;-1.192;2023-05-07T11:28:37;2.30;;;1.10;;
46755;SDS011;32506;52.826;-1.192;2023-05-07T11:31:04;4.30;;;1.17;;
46755;SDS011;32506;52.826;-1.192;2023-05-07T11:33:33;4.20;;;1.30;;
46755;SDS011;32506;52.826;-1.192;2023-05-07T11:35:59;2.63;;;1.10;;
46755;SDS011;32506;52.826;-1.192;2023-05-07T11:38:26;2.05;;;1.00;;
46755;SDS011;32506;52.826;-1.192;2023-05-07T11:40:55;3.10;;;1.00;;
46755;SDS011;32506;52.826;-1.192;2023-05-07T11:43:21;2.72;;;0.82;;
46755;SDS011;32506;52.826;-1.192;2023-05-07T11:45:48;4.18;;;0.73;;
46755;SDS011;32506;52.826;-1.192;2023-05-07T11:48:14;2.22;;;1.00;;
46755;SDS011;32506;52.826;-1.192;2023-05-07T11:50:50;2.80;;;1.20;;
46755;SDS011;32506;52.826;-1.192;2023-05-07T11:53:37;2.35;;;0.90;;
46755;SDS011;32506;52.826;-1.192;2023-05-07T11:56:07;1.83;;;0.80;;
46755;SDS011;32506;52.826;-1.192;2023-05-07T11:58:37;2.55;;;0.95;;
46755;SDS011;32506;52.826;-1.192;2023-05-07T12:01:02;3.47;;;1.15;;
46755;SDS011;32506;52.826;-1.192;2023-05-07T12:03:28;3.05;;;0.90;;
46755;SDS011;32506;52.826;-1.192;2023-05-07T12:05:54;4.75;;;1.10;;
46755;SDS011;32506;52.826;-1.192;2023-05-07T12:08:20;3.28;;;0.88;;
46755;SDS011;32506;52.826;-1.192;2023-05-07T12:10:48;4.72;;;0.90;;
46755;SDS011;32506;52.826;-1.192;2023-05-07T12:13:19;4.10;;;1.38;;
46755;SDS011;32506;52.826;-1.192;2023-05-07T12:15:46;3.80;;;0.93;;
46755;SDS011;32506;52.826;-1.192;2023-05-07T12:18:15;3.05;;;1.08;;
46755;SDS011;32506;52.826;-1.192;2023-05-07T12:20:41;3.90;;;0.85;;
46755;SDS011;32506;52.826;-1.192;2023-05-07T12:23:07;3.63;;;1.08;;
46755;SDS011;32506;52.826;-1.192;2023-05-07T12:25:35;2.20;;;0.95;;
46755;SDS011;32506;52.826;-1.192;2023-05-07T12:28:02;4.28;;;1.27;;
46755;SDS011;32506;52.826;-1.192;2023-05-07T12:30:30;2.63;;;1.30;;
46755;SDS011;32506;52.826;-1.192;2023-05-07T12:33:05;3.33;;;1.10;;
46755;SDS011;32506;52.826;-1.192;2023-05-07T12:35:31;3.00;;;1.15;;
46755;SDS011;32506;52.826;-1.192;2023-05-07T12:38:01;2.42;;;1.30;;
46755;SDS011;32506;52.826;-1.192;2023-05-07T12:40:42;2.55;;;1.10;;
46755;SDS011;32506;52.826;-1.192;2023-05-07T12:43:19;3.00;;;1.30;;
46755;SDS011;32506;52.826;-1.192;2023-05-07T12:45:49;3.40;;;1.10;;
46755;SDS011;32506;52.826;-1.192;2023-05-07T12:48:15;3.38;;;1.60;;
46755;SDS011;32506;52.826;-1.192;2023-05-07T12:50:41;3.92;;;1.30;;
46755;SDS011;32506;52.826;-1.192;2023-05-07T12:53:07;4.30;;;1.73;;
46755;SDS011;32506;52.826;-1.192;2023-05-07T12:55:43;2.63;;;1.40;;
46755;SDS011;32506;52.826;-1.192;2023-05-07T12:58:18;4.25;;;1.70;;
46755;SDS011;32506;52.826;-1.192;2023-05-07T13:00:46;2.08;;;1.23;;
46755;SDS011;32506;52.826;-1.192;2023-05-07T13:03:20;3.13;;;1.55;;
46755;SDS011;32506;52.826;-1.192;2023-05-07T13:05:54;4.00;;;1.70;;
46755;SDS011;32506;52.826;-1.192;2023-05-07T13:08:30;3.35;;;1.58;;
46755;SDS011;32506;52.826;-1.192;2023-05-07T13:11:02;5.50;;;2.15;;
46755;SDS011;32506;52.826;-1.192;2023-05-07T13:13:32;3.80;;;1.23;;
46755;SDS011;32506;52.826;-1.192;2023-05-07T13:15:58;5.20;;;1.80;;
46755;SDS011;32506;52.826;-1.192;2023-05-07T13:18:25;6.47;;;2.50;;
46755;SDS011;32506;52.826;-1.192;2023-05-07T13:20:52;3.95;;;1.77;;
46755;SDS011;32506;52.826;-1.192;2023-05-07T13:23:18;4.13;;;1.83;;
46755;SDS011;32506;52.826;-1.192;2023-05-07T13:25:44;3.95;;;1.63;;
46755;SDS011;32506;52.826;-1.192;2023-05-07T13:28:10;9.82;;;3.10;;
46755;SDS011;32506;52.826;-1.192;2023-05-07T13:30:35;7.95;;;2.53;;
46755;SDS011;32506;52.826;-1.192;2023-05-07T13:33:01;7.45;;;2.80;;
46755;SDS011;32506;52.826;-1.192;2023-05-07T13:35:26;6.03;;;1.52;;
46755;SDS011;32506;52.826;-1.192;2023-05-07T13:37:52;3.28;;;1.30;;
46755;SDS011;32506;52.826;-1.192;2023-05-07T13:40:21;6.60;;;1.50;;
46755;SDS011;32506;52.826;-1.192;2023-05-07T13:42:47;2.70;;;1.05;;
46755;SDS011;32506;52.826;-1.192;2023-05-07T13:45:13;2.70;;;1.10;;
46755;SDS011;32506;52.826;-1.192;2023-05-07T13:47:42;2.20;;;0.75;;
46755;SDS011;32506;52.826;-1.192;2023-05-07T13:50:08;3.97;;;1.13;;
46755;SDS011;32506;52.826;-1.192;2023-05-07T13:52:34;2.28;;;0.93;;
46755;SDS011;32506;52.826;-1.192;2023-05-07T13:54:59;4.85;;;1.25;;
46755;SDS011;32506;52.826;-1.192;2023-05-07T13:57:25;2.50;;;0.90;;
46755;SDS011;32506;52.826;-1.192;2023-05-07T13:59:53;4.97;;;1.42;;
46755;SDS011;32506;52.826;-1.192;2023-05-07T14:02:19;2.10;;;0.80;;
46755;SDS011;32506;52.826;-1.192;2023-05-07T14:04:44;3.55;;;1.05;;
46755;SDS011;32506;52.826;-1.192;2023-05-07T14:07:10;2.63;;;0.65;;
46755;SDS011;32506;52.826;-1.192;2023-05-07T14:09:35;2.20;;;0.90;;
46755;SDS011;32506;52.826;-1.192;2023-05-07T14:12:01;2.92;;;0.60;;
46755;SDS011;32506;52.826;-1.192;2023-05-07T14:14:26;3.55;;;0.90;;
46755;SDS011;32506;52.826;-1.192;2023-05-07T14:16:52;2.28;;;0.85;;
46755;SDS011;32506;52.826;-1.192;2023-05-07T14:19:20;2.40;;;0.70;;
46755;SDS011;32506;52.826;-1.192;2023-05-07T14:21:47;2.40;;;0.90;;
46755;SDS011;32506;52.826;-1.192;2023-05-07T14:24:13;3.20;;;0.98;;
46755;SDS011;32506;52.826;-1.192;2023-05-07T14:26:39;2.40;;;0.60;;
46755;SDS011;32506;52.826;-1.192;2023-05-07T14:29:04;1.98;;;0.68;;
46755;SDS011;32506;52.826;-1.192;2023-05-07T14:31:30;2.33;;;0.60;;
46755;SDS011;32506;52.826;-1.192;2023-05-07T14:33:56;2.55;;;0.77;;
46755;SDS011;32506;52.826;-1.192;2023-05-07T14:36:23;4.18;;;0.77;;
46755;SDS011;32506;52.826;-1.192;2023-05-07T14:38:51;4.00;;;0.85;;
46755;SDS011;32506;52.826;-1.192;2023-05-07T14:41:17;2.20;;;0.88;;
46755;SDS011;32506;52.826;-1.192;2023-05-07T14:43:43;1.80;;;0.50;;
46755;SDS011;32506;52.826;-1.192;2023-05-07T14:46:14;2.75;;;0.65;;
46755;SDS011;32506;52.826;-1.192;2023-05-07T14:48:46;2.42;;;0.90;;
46755;SDS011;32506;52.826;-1.192;2023-05-07T14:51:12;3.33;;;0.82;;
46755;SDS011;32506;52.826;-1.192;2023-05-07T14:53:38;3.50;;;1.10;;
46755;SDS011;32506;52.826;-1.192;2023-05-07T14:56:04;3.45;;;1.20;;
46755;SDS011;32506;52.826;-1.192;2023-05-07T14:58:30;3.28;;;0.85;;
46755;SDS011;32506;52.826;-1.192;2023-05-07T15:00:56;2.85;;;0.93;;
46755;SDS011;32506;52.826;-1.192;2023-05-07T15:03:21;2.35;;;0.80;;
46755;SDS011;32506;52.826;-1.192;2023-05-07T15:05:48;2.40;;;0.60;;
46755;SDS011;32506;52.826;-1.192;2023-05-07T15:08:15;2.63;;;0.70;;
46755;SDS011;32506;52.826;-1.192;2023-05-07T15:10:41;3.67;;;0.88;;
46755;SDS011;32506;52.826;-1.192;2023-05-07T15:13:07;2.78;;;0.90;;
46755;SDS011;32506;52.826;-1.192;2023-05-07T15:15:33;2.70;;;1.20;;
46755;SDS011;32506;52.826;-1.192;2023-05-07T15:17:58;2.97;;;0.77;;
46755;SDS011;32506;52.826;-1.192;2023-05-07T15:20:25;3.45;;;1.42;;
46755;SDS011;32506;52.826;-1.192;2023-05-07T15:22:51;2.25;;;0.75;;
46755;SDS011;32506;52.826;-1.192;2023-05-07T15:25:16;2.45;;;0.90;;
46755;SDS011;32506;52.826;-1.192;2023-05-07T15:27:42;4.63;;;0.90;;
46755;SDS011;32506;52.826;-1.192;2023-05-07T15:30:07;3.67;;;1.15;;
46755;SDS011;32506;52.826;-1.192;2023-05-07T15:32:35;3.88;;;1.23;;
46755;SDS011;32506;52.826;-1.192;2023-05-07T15:35:01;3.28;;;0.90;;
46755;SDS011;32506;52.826;-1.192;2023-05-07T15:37:27;3.08;;;1.17;;
46755;SDS011;32506;52.826;-1.192;2023-05-07T15:39:53;3.22;;;1.55;;
46755;SDS011;32506;52.826;-1.192;2023-05-07T15:42:18;4.95;;;1.13;;
46755;SDS011;32506;52.826;-1.192;2023-05-07T15:44:45;1.73;;;0.70;;
46755;SDS011;32506;52.826;-1.192;2023-05-07T15:47:11;3.35;;;0.90;;
46755;SDS011;32506;52.826;-1.192;2023-05-07T15:49:38;1.90;;;0.73;;
46755;SDS011;32506;52.826;-1.192;2023-05-07T15:52:05;3.60;;;1.38;;
46755;SDS011;32506;52.826;-1.192;2023-05-07T15:54:30;3.58;;;0.90;;
46755;SDS011;32506;52.826;-1.192;2023-05-07T15:56:56;3.78;;;1.00;;
46755;SDS011;32506;52.826;-1.192;2023-05-07T15:59:21;2.08;;;0.60;;
46755;SDS011;32506;52.826;-1.192;2023-05-07T16:01:47;1.90;;;0.98;;
46755;SDS011;32506;52.826;-1.192;2023-05-07T16:04:12;2.75;;;0.65;;
46755;SDS011;32506;52.826;-1.192;2023-05-07T16:06:38;3.13;;;0.88;;
46755;SDS011;32506;52.826;-1.192;2023-05-07T16:09:03;2.03;;;0.65;;
46755;SDS011;32506;52.826;-1.192;2023-05-07T16:11:29;3.13;;;0.85;;
46755;SDS011;32506;52.826;-1.192;2023-05-07T16:13:54;2.97;;;0.60;;
46755;SDS011;32506;52.826;-1.192;2023-05-07T16:16:20;3.25;;;0.70;;
46755;SDS011;32506;52.826;-1.192;2023-05-07T16:18:46;2.75;;;0.80;;
46755;SDS011;32506;52.826;-1.192;2023-05-07T16:21:11;4.80;;;1.70;;
46755;SDS011;32506;52.826;-1.192;2023-05-07T16:23:37;2.55;;;0.63;;
46755;SDS011;32506;52.826;-1.192;2023-05-07T16:26:02;2.03;;;0.57;;
46755;SDS011;32506;52.826;-1.192;2023-05-07T16:28:29;2.75;;;0.82;;
46755;SDS011;32506;52.826;-1.192;2023-05-07T16:30:55;2.83;;;0.80;;
46755;SDS011;32506;52.826;-1.192;2023-05-07T16:33:20;1.77;;;0.85;;
46755;SDS011;32506;52.826;-1.192;2023-05-07T16:35:54;2.42;;;0.75;;
46755;SDS011;32506;52.826;-1.192;2023-05-07T16:38:20;1.33;;;0.65;;
46755;SDS011;32506;52.826;-1.192;2023-05-07T16:40:45;2.88;;;0.70;;
46755;SDS011;32506;52.826;-1.192;2023-05-07T16:43:11;2.20;;;0.75;;
46755;SDS011;32506;52.826;-1.192;2023-05-07T16:45:36;3.35;;;0.88;;
46755;SDS011;32506;52.826;-1.192;2023-05-07T16:48:02;1.45;;;0.60;;
46755;SDS011;32506;52.826;-1.192;2023-05-07T16:50:29;2.85;;;0.90;;
46755;SDS011;32506;52.826;-1.192;2023-05-07T16:52:54;3.53;;;1.45;;
46755;SDS011;32506;52.826;-1.192;2023-05-07T16:55:20;2.60;;;0.85;;
46755;SDS011;32506;52.826;-1.192;2023-05-07T16:57:45;2.22;;;0.77;;
46755;SDS011;32506;52.826;-1.192;2023-05-07T17:00:11;2.35;;;0.70;;
46755;SDS011;32506;52.826;-1.192;2023-05-07T17:02:36;3.08;;;0.70;;
46755;SDS011;32506;52.826;-1.192;2023-05-07T17:05:02;2.80;;;0.85;;
46755;SDS011;32506;52.826;-1.192;2023-05-07T17:07:30;1.48;;;0.50;;
46755;SDS011;32506;52.826;-1.192;2023-05-07T17:09:55;3.72;;;0.90;;
46755;SDS011;32506;52.826;-1.192;2023-05-07T17:12:21;1.85;;;0.73;;
46755;SDS011;32506;52.826;-1.192;2023-05-07T17:14:46;3.53;;;0.75;;
46755;SDS011;32506;52.826;-1.192;2023-05-07T17:17:12;2.13;;;0.70;;
46755;SDS011;32506;52.826;-1.192;2023-05-07T17:19:37;1.58;;;0.80;;
46755;SDS011;32506;52.826;-1.192;2023-05-07T17:22:03;1.95;;;0.73;;
46755;SDS011;32506;52.826;-1.192;2023-05-07T17:24:29;1.83;;;0.68;;
46755;SDS011;32506;52.826;-1.192;2023-05-07T17:26:54;2.17;;;0.60;;
46755;SDS011;32506;52.826;-1.192;2023-05-07T17:29:20;2.00;;;0.70;;
46755;SDS011;32506;52.826;-1.192;2023-05-07T17:31:45;1.92;;;0.70;;
46755;SDS011;32506;52.826;-1.192;2023-05-07T17:34:11;1.05;;;0.57;;
46755;SDS011;32506;52.826;-1.192;2023-05-07T17:36:36;2.92;;;1.35;;
46755;SDS011;32506;52.826;-1.192;2023-05-07T17:39:02;2.40;;;0.75;;
46755;SDS011;32506;52.826;-1.192;2023-05-07T17:41:28;1.98;;;0.70;;
46755;SDS011;32506;52.826;-1.192;2023-05-07T17:43:54;1.73;;;0.75;;
46755;SDS011;32506;52.826;-1.192;2023-05-07T17:46:19;2.05;;;0.95;;
46755;SDS011;32506;52.826;-1.192;2023-05-07T17:48:44;1.45;;;0.90;;
46755;SDS011;32506;52.826;-1.192;2023-05-07T17:51:10;2.92;;;0.95;;
46755;SDS011;32506;52.826;-1.192;2023-05-07T17:53:35;3.90;;;0.80;;
46755;SDS011;32506;52.826;-1.192;2023-05-07T17:56:01;3.95;;;0.88;;
46755;SDS011;32506;52.826;-1.192;2023-05-07T17:58:27;2.60;;;0.85;;
46755;SDS011;32506;52.826;-1.192;2023-05-07T18:00:52;1.92;;;0.70;;
46755;SDS011;32506;52.826;-1.192;2023-05-07T18:03:21;2.13;;;0.88;;
46755;SDS011;32506;52.826;-1.192;2023-05-07T18:05:51;2.58;;;1.10;;
46755;SDS011;32506;52.826;-1.192;2023-05-07T18:08:16;3.17;;;1.23;;
46755;SDS011;32506;52.826;-1.192;2023-05-07T18:10:41;4.05;;;1.20;;
46755;SDS011;32506;52.826;-1.192;2023-05-07T18:13:07;2.88;;;1.05;;
46755;SDS011;32506;52.826;-1.192;2023-05-07T18:15:32;1.38;;;0.73;;
46755;SDS011;32506;52.826;-1.192;2023-05-07T18:17:58;2.55;;;0.88;;
46755;SDS011;32506;52.826;-1.192;2023-05-07T18:20:23;3.53;;;0.90;;
46755;SDS011;32506;52.826;-1.192;2023-05-07T18:22:49;2.58;;;0.82;;
46755;SDS011;32506;52.826;-1.192;2023-05-07T18:25:14;3.72;;;0.90;;
46755;SDS011;32506;52.826;-1.192;2023-05-07T18:27:40;4.18;;;0.95;;
46755;SDS011;32506;52.826;-1.192;2023-05-07T18:30:05;1.80;;;0.80;;
46755;SDS011;32506;52.826;-1.192;2023-05-07T18:32:31;3.05;;;1.08;;
46755;SDS011;32506;52.826;-1.192;2023-05-07T18:34:57;6.32;;;1.33;;
46755;SDS011;32506;52.826;-1.192;2023-05-07T18:37:23;2.95;;;0.70;;
46755;SDS011;32506;52.826;-1.192;2023-05-07T18:39:48;3.90;;;0.75;;
46755;SDS011;32506;52.826;-1.192;2023-05-07T18:42:14;4.40;;;1.35;;
46755;SDS011;32506;52.826;-1.192;2023-05-07T18:44:39;2.13;;;1.00;;
46755;SDS011;32506;52.826;-1.192;2023-05-07T18:47:05;3.17;;;0.98;;
46755;SDS011;32506;52.826;-1.192;2023-05-07T18:49:31;2.78;;;0.85;;
46755;SDS011;32506;52.826;-1.192;2023-05-07T18:51:57;3.15;;;1.00;;
46755;SDS011;32506;52.826;-1.192;2023-05-07T18:54:22;2.35;;;0.70;;
46755;SDS011;32506;52.826;-1.192;2023-05-07T18:56:48;3.47;;;1.30;;
46755;SDS011;32506;52.826;-1.192;2023-05-07T18:59:13;1.95;;;0.82;;
46755;SDS011;32506;52.826;-1.192;2023-05-07T19:01:39;3.10;;;1.13;;
46755;SDS011;32506;52.826;-1.192;2023-05-07T19:04:05;3.35;;;0.90;;
46755;SDS011;32506;52.826;-1.192;2023-05-07T19:06:30;2.50;;;0.77;;
46755;SDS011;32506;52.826;-1.192;2023-05-07T19:08:56;2.97;;;0.70;;
46755;SDS011;32506;52.826;-1.192;2023-05-07T19:11:21;1.88;;;0.85;;
46755;SDS011;32506;52.826;-1.192;2023-05-07T19:13:47;5.68;;;0.98;;
46755;SDS011;32506;52.826;-1.192;2023-05-07T19:16:13;2.03;;;0.75;;
46755;SDS011;32506;52.826;-1.192;2023-05-07T19:18:38;3.15;;;0.90;;
46755;SDS011;32506;52.826;-1.192;2023-05-07T19:21:05;4.43;;;1.00;;
46755;SDS011;32506;52.826;-1.192;2023-05-07T19:23:31;1.52;;;0.80;;
46755;SDS011;32506;52.826;-1.192;2023-05-07T19:25:57;2.47;;;0.85;;
46755;SDS011;32506;52.826;-1.192;2023-05-07T19:28:23;2.70;;;0.90;;
46755;SDS011;32506;52.826;-1.192;2023-05-07T19:30:50;1.75;;;0.57;;
46755;SDS011;32506;52.826;-1.192;2023-05-07T19:33:16;1.80;;;0.60;;
46755;SDS011;32506;52.826;-1.192;2023-05-07T19:35:42;1.95;;;0.82;;
46755;SDS011;32506;52.826;-1.192;2023-05-07T19:38:09;4.40;;;0.90;;
46755;SDS011;32506;52.826;-1.192;2023-05-07T19:40:34;3.47;;;1.00;;
46755;SDS011;32506;52.826;-1.192;2023-05-07T19:43:00;2.03;;;0.95;;
46755;SDS011;32506;52.826;-1.192;2023-05-07T19:45:25;1.10;;;0.70;;
46755;SDS011;32506;52.826;-1.192;2023-05-07T19:47:51;2.45;;;0.80;;
46755;SDS011;32506;52.826;-1.192;2023-05-07T19:50:17;1.77;;;0.60;;
46755;SDS011;32506;52.826;-1.192;2023-05-07T19:52:42;2.40;;;0.82;;
46755;SDS011;32506;52.826;-1.192;2023-05-07T19:55:08;2.60;;;0.98;;
46755;SDS011;32506;52.826;-1.192;2023-05-07T19:57:33;2.30;;;0.80;;
46755;SDS011;32506;52.826;-1.192;2023-05-07T19:59:59;1.98;;;0.85;;
46755;SDS011;32506;52.826;-1.192;2023-05-07T20:02:25;2.67;;;0.90;;
46755;SDS011;32506;52.826;-1.192;2023-05-07T20:04:51;1.75;;;0.77;;
46755;SDS011;32506;52.826;-1.192;2023-05-07T20:07:16;2.05;;;0.82;;
46755;SDS011;32506;52.826;-1.192;2023-05-07T20:09:41;1.58;;;0.70;;